createdAt,value
2022-12-08T00:01:20.605Z,3.13
2022-12-08T00:03:48.340Z,3.47
2022-12-08T00:06:43.064Z,3.33
2022-12-08T00:09:40.838Z,3.70
2022-12-08T00:12:13.527Z,3.30
2022-12-08T00:14:43.094Z,3.03
2022-12-08T00:17:11.938Z,3.72
2022-12-08T00:19:39.740Z,2.63
2022-12-08T00:22:08.335Z,3.47
2022-12-08T00:24:39.714Z,3.42
2022-12-08T00:27:11.692Z,4.07
2022-12-08T00:29:38.907Z,3.75
2022-12-08T00:32:06.398Z,3.85
2022-12-08T00:34:34.150Z,3.58
2022-12-08T00:37:01.488Z,3.88
2022-12-08T00:39:28.519Z,3.83
2022-12-08T00:42:13.555Z,3.47
2022-12-08T00:44:45.796Z,3.78
2022-12-08T00:47:14.183Z,4.07
2022-12-08T00:49:41.619Z,3.55
2022-12-08T00:52:08.786Z,4.97
2022-12-08T00:54:35.845Z,3.97
2022-12-08T00:57:02.904Z,3.30
2022-12-08T00:59:29.976Z,4.35
2022-12-08T01:01:57.198Z,3.90
2022-12-08T01:04:24.482Z,3.85
2022-12-08T01:06:51.678Z,4.70
2022-12-08T01:09:19.169Z,4.00
2022-12-08T01:11:46.289Z,3.83
2022-12-08T01:14:13.720Z,3.13
2022-12-08T01:16:43.879Z,3.50
2022-12-08T01:19:15.620Z,2.83
2022-12-08T01:21:43.111Z,2.83
2022-12-08T01:24:13.028Z,2.40
2022-12-08T01:29:06.970Z,3.60
2022-12-08T01:31:33.935Z,3.30
2022-12-08T01:34:01.135Z,3.53
2022-12-08T01:36:30.426Z,3.42
2022-12-08T01:39:00.126Z,3.92
2022-12-08T01:41:31.034Z,4.25
2022-12-08T01:44:00.607Z,4.30
2022-12-08T01:46:29.963Z,5.00
2022-12-08T01:49:01.038Z,4.90
2022-12-08T01:51:28.985Z,3.60
2022-12-08T01:53:56.715Z,4.22
2022-12-08T01:56:32.734Z,3.92
2022-12-08T01:59:00.001Z,3.80
2022-12-08T02:01:27.184Z,3.50
2022-12-08T02:04:02.709Z,3.10
2022-12-08T02:06:35.073Z,2.70
2022-12-08T02:09:05.474Z,3.83
2022-12-08T02:11:32.698Z,3.03
2022-12-08T02:14:06.513Z,4.20
2022-12-08T02:16:43.435Z,3.03
2022-12-08T02:22:05.272Z,3.83
2022-12-08T02:24:40.174Z,3.60
2022-12-08T02:27:33.949Z,2.83
2022-12-08T02:30:19.611Z,2.80
2022-12-08T02:33:14.088Z,3.13
2022-12-08T02:35:50.111Z,3.38
2022-12-08T02:38:56.464Z,4.07
2022-12-08T02:41:42.584Z,4.03
2022-12-08T02:44:14.203Z,3.05
2022-12-08T02:47:05.379Z,3.25
2022-12-08T02:49:34.455Z,3.03
2022-12-08T02:52:10.566Z,3.80
2022-12-08T02:54:41.201Z,3.85
2022-12-08T02:57:08.116Z,3.80
2022-12-08T03:00:04.149Z,2.97
2022-12-08T03:03:05.861Z,2.60
2022-12-08T03:05:35.927Z,2.80
2022-12-08T03:08:37.718Z,3.17
2022-12-08T03:11:20.484Z,3.75
2022-12-08T03:13:52.342Z,2.80
2022-12-08T03:16:26.641Z,3.85
2022-12-08T03:19:18.063Z,4.25
2022-12-08T03:21:50.095Z,3.30
2022-12-08T03:24:18.217Z,4.88
2022-12-08T03:26:54.598Z,3.53
2022-12-08T03:29:22.158Z,2.83
2022-12-08T03:31:54.605Z,3.58
2022-12-08T03:34:25.485Z,3.15
2022-12-08T03:36:52.501Z,3.42
2022-12-08T03:39:19.459Z,3.78
2022-12-08T03:41:47.775Z,2.90
2022-12-08T03:44:14.809Z,3.53
2022-12-08T03:46:41.768Z,3.33
2022-12-08T03:49:08.801Z,3.92
2022-12-08T03:51:35.896Z,3.05
2022-12-08T03:54:02.866Z,4.28
2022-12-08T03:56:36.532Z,4.15
2022-12-08T03:59:05.026Z,3.65
2022-12-08T04:01:32.156Z,3.90
2022-12-08T04:03:59.456Z,3.03
2022-12-08T04:06:26.657Z,4.50
2022-12-08T04:08:53.770Z,3.90
2022-12-08T04:11:20.826Z,3.95
2022-12-08T04:13:47.981Z,4.50
2022-12-08T04:16:23.222Z,4.25
2022-12-08T04:18:50.778Z,3.72
2022-12-08T04:21:18.321Z,4.35
2022-12-08T04:23:46.399Z,3.97
2022-12-08T04:26:14.216Z,3.95
2022-12-08T04:28:41.267Z,3.83
2022-12-08T04:31:08.408Z,4.25
2022-12-08T04:33:35.645Z,4.22
2022-12-08T04:36:04.817Z,3.88
2022-12-08T04:38:32.380Z,4.07
2022-12-08T04:40:59.433Z,3.38
2022-12-08T04:43:26.465Z,3.45
2022-12-08T04:45:53.543Z,3.47
2022-12-08T04:48:20.652Z,4.97
2022-12-08T04:50:47.721Z,4.00
2022-12-08T04:53:15.417Z,4.80
2022-12-08T04:55:44.961Z,4.20
2022-12-08T04:58:14.045Z,3.85
2022-12-08T05:00:41.467Z,3.78
2022-12-08T05:03:08.586Z,4.10
2022-12-08T05:05:35.631Z,3.70
2022-12-08T05:08:02.697Z,3.88
2022-12-08T05:10:29.831Z,4.80
2022-12-08T05:12:58.705Z,4.20
2022-12-08T05:15:25.915Z,5.50
2022-12-08T05:17:53.017Z,4.78
2022-12-08T05:20:20.123Z,3.92
2022-12-08T05:22:47.284Z,4.03
2022-12-08T05:25:15.078Z,4.15
2022-12-08T05:27:43.191Z,3.97
2022-12-08T05:30:10.819Z,4.70
2022-12-08T05:32:37.790Z,3.53
2022-12-08T05:35:05.099Z,2.92
2022-12-08T05:37:32.169Z,5.75
2022-12-08T05:39:59.394Z,3.40
2022-12-08T05:42:26.383Z,3.60
2022-12-08T05:44:53.630Z,4.88
2022-12-08T05:47:20.791Z,4.88
2022-12-08T05:49:47.931Z,4.38
2022-12-08T05:52:16.993Z,3.47
2022-12-08T05:54:44.436Z,4.00
2022-12-08T05:57:11.656Z,3.25
2022-12-08T05:59:39.415Z,4.15
2022-12-08T06:02:06.562Z,5.53
2022-12-08T06:04:33.692Z,4.97
2022-12-08T06:07:00.692Z,3.83
2022-12-08T06:09:27.767Z,4.10
2022-12-08T06:11:54.884Z,3.28
2022-12-08T06:14:21.935Z,5.45
2022-12-08T06:16:49.033Z,4.97
2022-12-08T06:19:16.323Z,4.22
2022-12-08T06:21:43.344Z,4.45
2022-12-08T06:24:10.351Z,3.78
2022-12-08T06:26:37.684Z,3.53
2022-12-08T06:29:05.161Z,3.20
2022-12-08T06:31:32.283Z,4.72
2022-12-08T06:33:59.445Z,4.18
2022-12-08T06:36:28.695Z,4.47
2022-12-08T06:38:56.600Z,3.63
2022-12-08T06:41:24.080Z,3.85
2022-12-08T06:43:51.308Z,6.43
2022-12-08T06:46:20.311Z,6.03
2022-12-08T06:48:47.865Z,3.72
2022-12-08T06:51:17.427Z,4.63
2022-12-08T06:53:45.843Z,3.50
2022-12-08T06:56:14.491Z,2.47
2022-12-08T06:58:46.117Z,4.20
2022-12-08T07:01:15.950Z,3.50
2022-12-08T07:03:43.743Z,3.58
2022-12-08T07:06:16.143Z,4.25
2022-12-08T07:08:43.378Z,6.15
2022-12-08T07:11:13.219Z,3.25
2022-12-08T07:13:43.850Z,4.43
2022-12-08T07:16:12.765Z,4.32
2022-12-08T07:18:40.065Z,4.20
2022-12-08T07:21:12.211Z,2.97
2022-12-08T07:23:39.556Z,3.83
2022-12-08T07:26:08.854Z,4.72
2022-12-08T07:28:37.942Z,4.38
2022-12-08T07:31:06.432Z,3.33
2022-12-08T07:33:34.369Z,4.28
2022-12-08T07:36:03.801Z,4.72
2022-12-08T07:38:31.291Z,6.22
2022-12-08T07:40:58.298Z,3.83
2022-12-08T07:43:25.396Z,3.35
2022-12-08T07:45:52.591Z,3.35
2022-12-08T07:48:19.877Z,3.25
2022-12-08T07:50:47.641Z,2.85
2022-12-08T07:53:15.279Z,4.20
2022-12-08T07:55:43.620Z,4.50
2022-12-08T07:58:11.581Z,4.28
2022-12-08T08:00:38.652Z,5.72
2022-12-08T08:03:06.380Z,3.80
2022-12-08T08:05:33.504Z,4.30
2022-12-08T08:08:00.521Z,3.35
2022-12-08T08:10:27.722Z,4.20
2022-12-08T08:12:54.865Z,4.63
2022-12-08T08:15:22.102Z,5.65
2022-12-08T08:17:53.511Z,5.70
2022-12-08T08:20:21.276Z,4.93
2022-12-08T08:22:50.241Z,5.30
2022-12-08T08:25:18.400Z,4.72
2022-12-08T08:27:46.726Z,3.55
2022-12-08T08:30:20.054Z,3.95
2022-12-08T08:32:48.444Z,5.03
2022-12-08T08:35:15.704Z,2.90
2022-12-08T08:37:48.331Z,3.55
2022-12-08T08:40:16.462Z,4.97
2022-12-08T08:42:43.482Z,5.53
2022-12-08T08:45:10.994Z,6.38
2022-12-08T08:47:38.023Z,4.35
2022-12-08T08:50:05.902Z,3.85
2022-12-08T08:52:33.269Z,3.20
2022-12-08T08:55:00.373Z,4.28
2022-12-08T08:57:27.549Z,3.25
2022-12-08T08:59:54.689Z,4.22
2022-12-08T09:02:22.265Z,6.03
2022-12-08T09:04:49.526Z,4.43
2022-12-08T09:07:16.651Z,5.30
2022-12-08T09:09:43.735Z,2.80
2022-12-08T09:12:11.496Z,4.60
2022-12-08T09:14:38.746Z,3.97
2022-12-08T09:17:07.302Z,5.28
2022-12-08T09:19:34.723Z,6.07
2022-12-08T09:22:01.772Z,5.90
2022-12-08T09:24:28.797Z,5.20
2022-12-08T09:26:55.784Z,3.75
2022-12-08T09:29:22.806Z,3.92
2022-12-08T09:31:49.928Z,5.13
2022-12-08T09:34:17.070Z,4.38
2022-12-08T09:36:44.169Z,4.40
2022-12-08T09:39:11.141Z,5.20
2022-12-08T09:41:50.130Z,5.88
2022-12-08T09:44:42.150Z,5.20
2022-12-08T09:47:33.783Z,4.68
2022-12-08T09:52:43.447Z,5.30
2022-12-08T09:55:25.664Z,5.40
2022-12-08T09:58:03.315Z,4.78
2022-12-08T10:00:30.562Z,5.00
2022-12-08T10:02:57.799Z,4.47
2022-12-08T10:05:27.867Z,4.65
2022-12-08T10:08:16.677Z,4.55
2022-12-08T10:10:51.994Z,5.15
2022-12-08T10:13:32.450Z,5.35
2022-12-08T10:16:22.044Z,5.47
2022-12-08T10:18:57.816Z,4.22
2022-12-08T10:21:29.056Z,4.70
2022-12-08T10:24:04.223Z,5.85
2022-12-08T10:26:33.005Z,5.22
2022-12-08T10:29:02.982Z,5.50
2022-12-08T10:31:30.923Z,3.95
2022-12-08T10:34:01.011Z,5.57
2022-12-08T10:36:50.346Z,4.88
2022-12-08T10:39:32.672Z,6.03
2022-12-08T10:42:14.905Z,5.65
2022-12-08T10:45:16.086Z,5.07
2022-12-08T10:47:52.311Z,4.22
2022-12-08T10:50:32.857Z,5.13
2022-12-08T10:53:12.795Z,4.47
2022-12-08T10:55:51.967Z,6.13
2022-12-08T10:58:34.198Z,4.90
2022-12-08T11:01:26.823Z,6.07
2022-12-08T11:04:01.717Z,5.13
2022-12-08T11:06:28.714Z,5.07
2022-12-08T11:08:58.276Z,4.50
2022-12-08T11:12:10.110Z,6.35
2022-12-08T11:15:01.518Z,4.57
2022-12-08T11:17:41.554Z,6.38
2022-12-08T11:20:11.666Z,5.13
2022-12-08T11:22:54.584Z,5.72
2022-12-08T11:25:28.058Z,5.15
2022-12-08T11:27:58.355Z,6.03
2022-12-08T11:30:30.049Z,4.38
2022-12-08T11:33:03.604Z,4.70
2022-12-08T11:35:35.032Z,5.90
2022-12-08T11:38:21.255Z,5.53
2022-12-08T11:40:53.384Z,3.83
2022-12-08T11:43:35.770Z,4.38
2022-12-08T11:46:13.531Z,5.13
2022-12-08T11:48:45.187Z,5.40
2022-12-08T11:51:30.490Z,5.65
2022-12-08T11:54:03.717Z,5.43
2022-12-08T11:57:01.997Z,5.28
2022-12-08T11:59:31.298Z,5.22
2022-12-08T12:02:01.520Z,4.00
2022-12-08T12:04:34.203Z,4.82
2022-12-08T12:07:24.571Z,5.63
2022-12-08T12:10:23.336Z,4.57
2022-12-08T12:13:05.553Z,5.57
2022-12-08T12:15:54.613Z,6.72
2022-12-08T12:18:31.617Z,5.57
2022-12-08T12:21:36.795Z,6.97
2022-12-08T12:24:09.178Z,6.78
2022-12-08T12:26:39.605Z,4.40
2022-12-08T12:29:21.286Z,6.00
2022-12-08T12:31:53.478Z,4.85
2022-12-08T12:34:23.183Z,5.05
2022-12-08T12:37:15.895Z,3.88
2022-12-08T12:40:03.846Z,5.40
2022-12-08T12:42:39.668Z,5.15
2022-12-08T12:45:18.295Z,5.15
2022-12-08T12:47:56.413Z,4.80
2022-12-08T12:50:55.331Z,5.00
2022-12-08T12:53:22.231Z,4.50
2022-12-08T12:55:57.107Z,5.25
2022-12-08T12:58:30.195Z,5.22
2022-12-08T13:01:15.305Z,4.53
2022-12-08T13:03:49.386Z,4.05
2022-12-08T13:06:26.414Z,5.60
2022-12-08T13:08:56.386Z,4.53
2022-12-08T13:11:24.195Z,4.32
2022-12-08T13:14:04.700Z,6.18
2022-12-08T13:16:33.997Z,8.35
2022-12-08T13:19:05.622Z,5.45
2022-12-08T13:21:38.737Z,5.30
2022-12-08T13:24:14.671Z,5.57
2022-12-08T13:26:49.020Z,6.97
2022-12-08T13:29:24.186Z,3.72
2022-12-08T13:31:56.090Z,5.47
2022-12-08T13:34:26.133Z,3.40
2022-12-08T13:36:57.545Z,4.38
2022-12-08T13:39:32.893Z,5.50
2022-12-08T13:42:12.436Z,4.78
2022-12-08T13:57:10.732Z,4.82
2022-12-08T13:59:44.010Z,5.22
2022-12-08T14:02:35.928Z,5.15
2022-12-08T14:05:26.329Z,4.40
2022-12-08T14:07:55.026Z,5.60
2022-12-08T14:10:32.051Z,5.35
2022-12-08T14:13:06.438Z,5.32
2022-12-08T14:15:38.251Z,4.72
2022-12-08T14:18:21.492Z,5.30
2022-12-08T14:23:50.732Z,5.13
2022-12-08T14:26:18.125Z,4.57
2022-12-08T14:28:45.481Z,6.00
2022-12-08T14:31:14.693Z,5.22
2022-12-08T14:33:42.662Z,4.20
2022-12-08T14:36:10.019Z,6.10
2022-12-08T14:38:37.145Z,5.63
2022-12-08T14:41:07.474Z,4.63
2022-12-08T14:43:35.128Z,4.25
2022-12-08T14:46:24.694Z,4.53
2022-12-08T14:48:53.698Z,5.32
2022-12-08T14:51:21.454Z,4.78
2022-12-08T14:54:13.492Z,5.78
2022-12-08T14:56:52.246Z,5.60
2022-12-08T14:59:38.164Z,5.45
2022-12-08T15:02:21.843Z,5.70
2022-12-08T15:04:54.862Z,5.40
2022-12-08T15:07:24.969Z,5.93
2022-12-08T15:10:20.194Z,6.25
2022-12-08T15:13:00.701Z,5.85
2022-12-08T15:15:29.222Z,5.90
2022-12-08T15:18:04.607Z,5.40
2022-12-08T15:20:40.941Z,5.72
2022-12-08T15:23:19.985Z,5.65
2022-12-08T15:25:47.084Z,6.07
2022-12-08T15:28:16.421Z,6.50
2022-12-08T15:30:43.469Z,5.68
2022-12-08T15:33:10.430Z,5.65
2022-12-08T15:35:40.886Z,6.25
2022-12-08T15:38:23.915Z,5.80
2022-12-08T15:40:52.229Z,6.43
2022-12-08T15:43:20.037Z,6.40
2022-12-08T15:45:57.876Z,6.20
2022-12-08T15:48:30.542Z,5.95
2022-12-08T15:50:58.382Z,5.25
2022-12-08T15:53:26.022Z,5.88
2022-12-08T15:56:25.699Z,6.13
2022-12-08T15:58:57.055Z,6.45
2022-12-08T16:01:25.039Z,5.47
2022-12-08T16:09:36.955Z,6.97
2022-12-08T16:12:24.368Z,7.18
2022-12-08T16:17:39.949Z,6.07
2022-12-08T16:20:13.080Z,5.90
2022-12-08T16:25:41.008Z,5.72
2022-12-08T16:28:45.390Z,6.20
2022-12-08T16:31:00.887Z,6.20
2022-12-08T16:33:27.962Z,5.20
2022-12-08T16:35:54.994Z,6.53
2022-12-08T16:38:22.110Z,6.10
2022-12-08T16:41:07.558Z,7.10
2022-12-08T16:43:34.925Z,6.05
2022-12-08T16:46:03.282Z,6.15
2022-12-08T16:48:30.534Z,5.78
2022-12-08T16:50:57.583Z,6.18
2022-12-08T16:53:24.654Z,6.25
2022-12-08T16:55:51.977Z,6.85
2022-12-08T16:58:18.954Z,6.57
2022-12-08T17:00:46.137Z,6.63
2022-12-08T17:03:15.715Z,8.13
2022-12-08T17:05:43.283Z,7.18
2022-12-08T17:08:10.521Z,6.43
2022-12-08T17:10:39.485Z,6.35
2022-12-08T17:13:06.625Z,7.78
2022-12-08T17:15:33.933Z,7.25
2022-12-08T17:18:00.981Z,7.72
2022-12-08T17:20:29.553Z,8.07
2022-12-08T17:22:59.501Z,6.43
2022-12-08T17:25:27.073Z,6.95
2022-12-08T17:27:54.429Z,8.77
2022-12-08T17:30:21.583Z,7.32
2022-12-08T17:32:48.815Z,7.50
2022-12-08T17:35:16.331Z,6.15
2022-12-08T17:37:43.573Z,7.15
2022-12-08T17:40:10.947Z,7.18
2022-12-08T17:42:38.834Z,7.68
2022-12-08T17:45:08.403Z,6.70
2022-12-08T17:50:03.164Z,7.25
2022-12-08T17:52:30.965Z,8.23
2022-12-08T17:54:58.003Z,8.27
2022-12-08T17:57:25.125Z,9.45
2022-12-08T17:59:52.300Z,7.82
2022-12-08T18:02:20.031Z,9.13
2022-12-08T18:04:47.435Z,9.00
2022-12-08T18:07:14.429Z,8.75
2022-12-08T18:09:42.046Z,8.88
2022-12-08T18:12:09.201Z,8.40
2022-12-08T18:14:36.223Z,8.60
2022-12-08T18:17:03.615Z,8.25
2022-12-08T18:19:30.843Z,8.35
2022-12-08T18:21:57.921Z,8.00
2022-12-08T18:24:25.939Z,7.25
2022-12-08T18:26:53.581Z,8.93
2022-12-08T18:29:21.868Z,9.15
2022-12-08T18:31:49.211Z,8.60
2022-12-08T18:34:16.353Z,7.78
2022-12-08T18:36:43.411Z,8.13
2022-12-08T18:39:24.734Z,6.78
2022-12-08T18:41:52.642Z,8.40
2022-12-08T18:44:20.048Z,7.82
2022-12-08T18:46:47.237Z,8.50
2022-12-08T18:49:17.478Z,8.93
2022-12-08T18:51:45.362Z,7.63
2022-12-08T18:54:13.313Z,8.93
2022-12-08T18:56:40.429Z,7.90
2022-12-08T18:59:11.407Z,8.38
2022-12-08T19:01:39.892Z,9.32
2022-12-08T19:06:59.261Z,9.48
2022-12-08T19:09:27.077Z,8.55
2022-12-08T19:11:54.292Z,6.43
2022-12-08T19:14:27.936Z,9.93
2022-12-08T19:16:55.487Z,9.18
2022-12-08T19:19:22.536Z,8.45
2022-12-08T19:21:50.128Z,9.13
2022-12-08T19:24:17.436Z,8.63
2022-12-08T19:26:44.602Z,9.77
2022-12-08T19:29:11.944Z,10.63
2022-12-08T19:31:39.527Z,9.43
2022-12-08T19:34:07.150Z,10.77
2022-12-08T19:36:36.206Z,9.90
2022-12-08T19:39:23.326Z,10.10
2022-12-08T19:42:09.753Z,11.15
2022-12-08T19:44:55.227Z,10.07
2022-12-08T19:47:27.333Z,10.23
2022-12-08T19:50:15.401Z,10.73
2022-12-08T19:52:42.943Z,8.70
2022-12-08T19:55:10.537Z,11.40
2022-12-08T19:57:37.561Z,10.52
2022-12-08T20:00:06.248Z,9.60
2022-12-08T20:02:37.264Z,10.77
2022-12-08T20:05:06.188Z,10.68
2022-12-08T20:07:33.506Z,9.27
2022-12-08T20:10:00.674Z,10.63
2022-12-08T20:12:27.684Z,9.32
2022-12-08T20:14:54.703Z,10.90
2022-12-08T20:17:21.731Z,10.93
2022-12-08T20:19:48.752Z,10.90
2022-12-08T20:22:15.806Z,11.05
2022-12-08T20:24:42.834Z,10.38
2022-12-08T20:27:09.861Z,9.90
2022-12-08T20:29:36.855Z,10.95
2022-12-08T20:32:04.066Z,10.82
2022-12-08T20:34:31.596Z,10.73
2022-12-08T20:36:58.651Z,10.95
2022-12-08T20:39:25.767Z,11.88
2022-12-08T20:41:54.653Z,9.95
2022-12-08T20:44:22.022Z,9.43
2022-12-08T20:46:49.741Z,10.45
2022-12-08T20:49:17.055Z,11.13
2022-12-08T20:51:44.603Z,10.80
2022-12-08T20:54:11.884Z,11.02
2022-12-08T20:56:44.768Z,11.43
2022-12-08T20:59:17.171Z,10.60
2022-12-08T21:01:44.368Z,11.52
2022-12-08T21:04:12.906Z,10.68
2022-12-08T21:06:40.258Z,10.75
2022-12-08T21:09:07.751Z,10.77
2022-12-08T21:11:35.891Z,10.82
2022-12-08T21:14:03.862Z,11.15
2022-12-08T21:16:31.061Z,11.38
2022-12-08T21:18:58.222Z,12.23
2022-12-08T21:21:25.414Z,11.43
2022-12-08T21:23:52.634Z,11.70
2022-12-08T21:26:25.955Z,12.48
2022-12-08T21:28:57.941Z,11.23
2022-12-08T21:31:31.891Z,11.85
2022-12-08T21:34:00.128Z,10.85
2022-12-08T21:36:27.467Z,11.57
2022-12-08T21:38:55.285Z,12.43
2022-12-08T21:41:42.073Z,11.77
2022-12-08T21:44:12.252Z,11.75
2022-12-08T21:46:39.643Z,11.55
2022-12-08T21:49:07.100Z,11.70
2022-12-08T21:51:37.916Z,11.10
2022-12-08T21:54:05.151Z,11.93
2022-12-08T21:56:32.634Z,10.15
2022-12-08T21:58:59.641Z,10.52
2022-12-08T22:01:26.777Z,10.32
2022-12-08T22:03:53.901Z,10.55
2022-12-08T22:06:21.064Z,8.77
2022-12-08T22:08:48.205Z,9.77
2022-12-08T22:11:15.313Z,10.25
2022-12-08T22:13:42.811Z,10.15
2022-12-08T22:16:12.673Z,10.85
2022-12-08T22:18:40.071Z,9.55
2022-12-08T22:21:11.663Z,9.73
2022-12-08T22:23:38.894Z,9.88
2022-12-08T22:26:06.686Z,10.65
2022-12-08T22:28:37.837Z,9.48
2022-12-08T22:31:13.589Z,10.15
2022-12-08T22:33:42.610Z,10.25
2022-12-08T22:36:18.431Z,10.20
2022-12-08T22:38:45.878Z,11.00
2022-12-08T22:41:13.459Z,10.98
2022-12-08T22:43:41.464Z,12.30
2022-12-08T22:46:12.270Z,10.55
2022-12-08T22:48:39.992Z,10.27
2022-12-08T22:51:07.935Z,11.13
2022-12-08T22:53:35.018Z,11.88
2022-12-08T22:56:06.894Z,11.23
2022-12-08T22:58:34.500Z,11.85
2022-12-08T23:01:01.722Z,10.98
2022-12-08T23:03:28.988Z,11.45
2022-12-08T23:05:56.062Z,10.38
2022-12-08T23:08:23.621Z,10.93
2022-12-08T23:10:52.814Z,10.25
2022-12-08T23:13:21.189Z,10.98
2022-12-08T23:15:48.589Z,10.23
2022-12-08T23:18:19.321Z,11.18
2022-12-08T23:20:47.752Z,11.88
2022-12-08T23:23:15.123Z,10.60
2022-12-08T23:25:43.279Z,10.32
2022-12-08T23:28:11.159Z,9.35
2022-12-08T23:30:41.392Z,10.70
2022-12-08T23:33:08.501Z,10.98
2022-12-08T23:35:35.581Z,10.70
2022-12-08T23:38:02.648Z,11.40
2022-12-08T23:40:29.607Z,10.95
2022-12-08T23:42:56.648Z,10.82
2022-12-08T23:45:23.709Z,9.95
2022-12-08T23:47:50.796Z,10.40
2022-12-08T23:50:17.881Z,11.38
2022-12-08T23:52:45.538Z,11.10
2022-12-08T23:55:12.646Z,13.20
2022-12-08T23:57:40.110Z,11.30
